Americus, GA

12:52 AM EDT on November 01, 2014 (GMT -0400)
Wildwood Circle | Change Station
CLOSE
Current Station
Personal Weather Station
Location: Americus, GA
Elevation: 402 ft
Nearby Weather Stations

Elev 402 ft 32.06 °N, 84.21 °W | Updated 7 minutes ago

Overcast
Overcast
50.0 °F
Feels Like 50 °F
N
3.1
Wind Variable Wind from West
Gusts 10.7 mph

Today
High -- | Low -- °F
--% Chance of Precip.
Yesterday
High -- | Low -- °F
Precip. -- in
7:53 AM 6:46 PM
Waxing Gibbous, 62% visible
Pressure 29.98 in
Visibility 10.0 miles
Clouds Scattered Clouds 2500 ft
Mostly Cloudy 3100 ft
Overcast 4000 ft
Windchill 50 °F
Dew Point 37 °F
Humidity 61%
Rainfall 0.00 in
Snow Depth Not available.
UV 0 out of 12
Pollen 1.80 out of 12
Air Quality Not available.
Flu Activity Not available.
METAR KACJ 010435Z AUTO 32012G23KT 10SM SCT025 BKN031 OVC040 10/01 A2998 RMK AO2

More Conditions Fewer Conditions

Pressure 29.98 in
Visibility 10.0 miles
Clouds Scattered Clouds 2500 ft
Mostly Cloudy 3100 ft
Overcast 4000 ft
Windchill 50 °F
Dew Point 37 °F
Humidity 61%
Rainfall 0.00 in
Snow Depth Not available.
UV 0 out of 12
Pollen 1.80 out of 12
Air Quality Not available.
Flu Activity Not available.
METAR KACJ 010435Z AUTO 32012G23KT 10SM SCT025 BKN031 OVC040 10/01 A2998 RMK AO2

More Conditions Fewer Conditions

10-Day Weather Forecast

Almanac

Astronomy

Nov. 01, 2014 Rise Set
Actual Time
Civil Twilight
Nautical Twilight
Astronomical Twilight
Moon
Length of Visible Light
Length of Day
Tomorrow will be .
, % of the Moon is Illuminated

Today's Extremes

State Highs State Lows

Community

WunderPhotos

Upload Photos

1,766,854 photos uploaded!

WunderBlogs® & News

Nearby

Air Quality

  Air Quality AQ Index Pollutant
Not available.

Snow Depth

Station Depth Elevation

Earthquake Activity

City Distance Mag. Time & Date
Minimum magnitude displayed is 2.5.

Coastal Water Temperatures

Place Temperature

Nearby Weather Stations